createdAt,value
2023-04-21T00:02:17.504Z,4.75
2023-04-21T00:05:20.672Z,5.18
2023-04-21T00:08:23.752Z,4.80
2023-04-21T00:11:26.726Z,4.95
2023-04-21T00:14:29.668Z,5.30
2023-04-21T00:17:32.656Z,5.03
2023-04-21T00:20:36.783Z,5.13
2023-04-21T00:23:39.777Z,4.50
2023-04-21T00:26:42.694Z,4.95
2023-04-21T00:29:45.704Z,4.88
2023-04-21T00:32:48.770Z,4.53
2023-04-21T00:35:51.742Z,5.10
2023-04-21T00:38:55.459Z,4.60
2023-04-21T00:41:58.421Z,4.63
2023-04-21T00:45:01.502Z,5.53
2023-04-21T00:48:06.881Z,5.10
2023-04-21T00:51:09.844Z,4.63
2023-04-21T00:54:12.829Z,5.00
2023-04-21T00:57:15.814Z,4.88
2023-04-21T01:00:19.080Z,4.93
2023-04-21T01:03:22.319Z,4.72
2023-04-21T01:06:25.844Z,4.50
2023-04-21T01:09:28.807Z,4.47
2023-04-21T01:12:32.188Z,4.35
2023-04-21T01:15:35.322Z,3.90
2023-04-21T01:18:38.252Z,4.10
2023-04-21T01:21:43.211Z,5.05
2023-04-21T01:24:47.502Z,4.87
2023-04-21T01:27:50.568Z,5.13
2023-04-21T01:30:53.650Z,5.85
2023-04-21T01:33:58.186Z,5.78
2023-04-21T01:37:01.275Z,5.97
2023-04-21T01:40:07.709Z,5.73
2023-04-21T01:43:10.676Z,4.78
2023-04-21T01:46:13.658Z,5.18
2023-04-21T01:49:16.841Z,5.25
2023-04-21T01:52:19.970Z,5.53
2023-04-21T01:55:23.041Z,5.07
2023-04-21T01:58:26.157Z,5.63
2023-04-21T02:01:29.168Z,4.95
2023-04-21T02:04:32.380Z,4.88
2023-04-21T02:07:36.232Z,4.72
2023-04-21T02:10:39.271Z,4.60
2023-04-21T02:13:42.246Z,4.90
2023-04-21T02:16:45.303Z,4.53
2023-04-21T02:19:48.284Z,4.75
2023-04-21T02:22:51.272Z,5.28
2023-04-21T02:25:54.896Z,4.57
2023-04-21T02:28:57.923Z,4.70
2023-04-21T02:32:05.562Z,4.70
2023-04-21T02:35:17.117Z,4.85
2023-04-21T02:38:20.044Z,4.40
2023-04-21T02:41:23.391Z,4.67
2023-04-21T02:44:26.416Z,4.85
2023-04-21T02:47:29.414Z,4.60
2023-04-21T02:50:33.740Z,5.35
2023-04-21T02:53:37.652Z,4.57
2023-04-21T02:56:40.603Z,5.40
2023-04-21T02:59:43.607Z,4.53
2023-04-21T03:02:46.746Z,5.13
2023-04-21T03:05:49.782Z,5.20
2023-04-21T03:08:53.770Z,4.97
2023-04-21T03:11:56.681Z,4.63
2023-04-21T03:14:59.674Z,4.95
2023-04-21T03:18:03.018Z,4.55
2023-04-21T03:21:06.083Z,5.57
2023-04-21T03:24:09.421Z,5.18
2023-04-21T03:27:12.632Z,4.50
2023-04-21T03:30:15.580Z,4.72
2023-04-21T03:33:18.578Z,4.90
2023-04-21T03:36:21.565Z,5.13
2023-04-21T03:39:24.723Z,4.97
2023-04-21T03:42:30.250Z,4.90
2023-04-21T03:45:35.560Z,5.95
2023-04-21T03:48:38.708Z,6.35
2023-04-21T03:51:41.664Z,5.20
2023-04-21T03:54:44.675Z,6.07
2023-04-21T03:57:47.719Z,5.40
2023-04-21T04:00:50.707Z,5.32
2023-04-21T04:03:53.823Z,4.30
2023-04-21T04:06:57.498Z,5.13
2023-04-21T04:10:00.717Z,4.95
2023-04-21T04:13:03.649Z,4.63
2023-04-21T04:16:07.099Z,4.90
2023-04-21T04:19:10.271Z,4.45
2023-04-21T04:22:13.289Z,5.20
2023-04-21T04:25:17.097Z,4.50
2023-04-21T04:28:20.089Z,4.80
2023-04-21T04:31:25.648Z,28.38
2023-04-21T04:34:28.741Z,8.18
2023-04-21T04:37:31.909Z,4.43
2023-04-21T04:40:34.923Z,3.72
2023-04-21T04:43:39.089Z,4.73
2023-04-21T04:46:42.990Z,4.80
2023-04-21T04:49:46.030Z,4.50
2023-04-21T04:52:49.882Z,3.80
2023-04-21T04:55:53.702Z,5.15
2023-04-21T04:58:56.809Z,4.03
2023-04-21T05:01:59.955Z,4.35
2023-04-21T05:05:03.772Z,4.30
2023-04-21T05:08:06.931Z,4.18
2023-04-21T05:11:09.940Z,4.68
2023-04-21T05:14:12.966Z,4.03
2023-04-21T05:17:15.941Z,4.78
2023-04-21T05:20:18.918Z,4.97
2023-04-21T05:23:22.589Z,4.68
2023-04-21T05:26:27.506Z,5.20
2023-04-21T05:29:31.421Z,4.73
2023-04-21T05:32:36.408Z,4.63
2023-04-21T05:35:39.812Z,4.20
2023-04-21T05:38:42.900Z,3.92
2023-04-21T05:41:45.991Z,4.07
2023-04-21T05:44:49.033Z,4.60
2023-04-21T05:47:52.184Z,4.22
2023-04-21T05:50:55.986Z,3.97
2023-04-21T05:53:59.003Z,4.97
2023-04-21T05:57:02.003Z,4.10
2023-04-21T06:00:05.610Z,4.87
2023-04-21T06:03:08.708Z,3.47
2023-04-21T06:06:11.860Z,4.70
2023-04-21T06:09:15.820Z,3.50
2023-04-21T06:12:19.346Z,3.50
2023-04-21T06:15:22.335Z,3.40
2023-04-21T06:18:27.461Z,3.67
2023-04-21T06:21:30.925Z,3.80
2023-04-21T06:24:34.025Z,3.97
2023-04-21T06:27:36.988Z,4.15
2023-04-21T06:30:39.998Z,3.77
2023-04-21T06:33:43.121Z,3.63
2023-04-21T06:36:46.251Z,3.60
2023-04-21T06:39:49.332Z,3.30
2023-04-21T06:42:52.296Z,4.53
2023-04-21T06:45:55.319Z,3.80
2023-04-21T06:48:58.321Z,3.67
2023-04-21T06:52:01.294Z,4.00
2023-04-21T06:55:04.553Z,3.80
2023-04-21T06:58:07.523Z,3.95
2023-04-21T07:01:10.674Z,3.87
2023-04-21T07:04:13.778Z,3.92
2023-04-21T07:07:16.763Z,3.97
2023-04-21T07:10:22.630Z,3.80
2023-04-21T07:13:25.681Z,3.60
2023-04-21T07:16:29.412Z,3.73
2023-04-21T07:19:32.514Z,3.88
2023-04-21T07:22:36.242Z,3.72
2023-04-21T07:25:39.258Z,4.60
2023-04-21T07:28:42.385Z,3.50
2023-04-21T07:31:47.245Z,3.37
2023-04-21T07:34:50.265Z,3.78
2023-04-21T07:37:53.236Z,4.32
2023-04-21T07:40:56.442Z,3.38
2023-04-21T07:43:59.827Z,3.60
2023-04-21T07:47:02.813Z,3.57
2023-04-21T07:50:06.577Z,3.67
2023-04-21T07:53:09.633Z,3.92
2023-04-21T07:56:13.230Z,3.83
2023-04-21T07:59:16.386Z,3.90
2023-04-21T08:02:19.411Z,4.10
2023-04-21T08:05:22.948Z,3.75
2023-04-21T08:08:31.883Z,3.60
2023-04-21T08:11:35.167Z,4.30
2023-04-21T08:14:38.204Z,4.03
2023-04-21T08:17:41.430Z,3.80
2023-04-21T08:20:44.992Z,4.57
2023-04-21T08:23:48.050Z,4.25
2023-04-21T08:26:51.193Z,5.25
2023-04-21T08:29:54.263Z,4.07
2023-04-21T08:32:57.346Z,4.83
2023-04-21T08:36:07.275Z,4.18
2023-04-21T08:39:16.968Z,4.90
2023-04-21T08:42:20.256Z,4.43
2023-04-21T08:45:23.324Z,4.75
2023-04-21T08:48:26.280Z,4.73
2023-04-21T08:51:31.163Z,5.15
2023-04-21T08:54:36.416Z,5.18
2023-04-21T08:57:39.436Z,5.32
2023-04-21T09:00:42.841Z,4.90
2023-04-21T09:03:46.244Z,5.23
2023-04-21T09:06:49.428Z,4.90
2023-04-21T09:09:53.970Z,5.22
2023-04-21T09:12:57.119Z,5.43
2023-04-21T09:16:01.006Z,4.47
2023-04-21T09:19:04.105Z,5.33
2023-04-21T09:22:07.166Z,5.10
2023-04-21T09:25:10.225Z,5.13
2023-04-21T09:28:14.409Z,5.53
2023-04-21T09:31:22.142Z,5.22
2023-04-21T09:34:26.206Z,5.63
2023-04-21T09:37:31.986Z,5.90
2023-04-21T09:41:00.168Z,6.00
2023-04-21T09:44:05.128Z,5.47
2023-04-21T09:47:10.083Z,5.80
2023-04-21T09:50:13.539Z,5.83
2023-04-21T09:53:17.400Z,6.80
2023-04-21T09:56:21.464Z,6.40
2023-04-21T09:59:38.238Z,5.68
2023-04-21T10:02:45.621Z,5.78
2023-04-21T10:05:48.826Z,6.27
2023-04-21T10:08:51.873Z,6.13
2023-04-21T10:11:55.810Z,5.30
2023-04-21T10:14:58.937Z,5.10
2023-04-21T10:18:25.177Z,5.60
2023-04-21T10:21:28.914Z,5.80
2023-04-21T10:24:31.960Z,5.88
2023-04-21T10:27:36.535Z,6.15
2023-04-21T10:30:44.184Z,6.82
2023-04-21T10:34:08.560Z,6.05
2023-04-21T10:37:12.989Z,6.20
2023-04-21T10:40:43.261Z,6.03
2023-04-21T10:43:49.679Z,5.90
2023-04-21T10:46:53.830Z,5.85
2023-04-21T10:50:00.811Z,5.80
2023-04-21T10:53:18.586Z,5.17
2023-04-21T10:56:22.779Z,5.82
2023-04-21T10:59:32.034Z,5.10
2023-04-21T11:02:38.631Z,6.13
2023-04-21T11:05:43.491Z,5.60
2023-04-21T11:08:56.727Z,5.40
2023-04-21T11:12:02.712Z,6.22
2023-04-21T11:15:10.373Z,5.88
2023-04-21T11:18:14.733Z,5.50
2023-04-21T11:21:18.826Z,5.72
2023-04-21T11:24:22.273Z,6.10
2023-04-21T11:27:27.310Z,5.68
2023-04-21T11:30:34.264Z,7.68
2023-04-21T11:33:41.593Z,5.95
2023-04-21T11:36:45.111Z,5.32
2023-04-21T11:39:48.064Z,6.10
2023-04-21T11:42:51.093Z,5.45
2023-04-21T11:45:54.152Z,6.03
2023-04-21T11:49:04.864Z,6.50
2023-04-21T11:52:07.892Z,6.05
2023-04-21T11:55:20.901Z,6.03
2023-04-21T11:58:24.073Z,8.38
2023-04-21T12:01:27.920Z,6.35
2023-04-21T12:04:33.683Z,5.90
2023-04-21T12:07:42.808Z,6.20
2023-04-21T12:10:46.779Z,6.67
2023-04-21T12:13:49.743Z,5.68
2023-04-21T12:16:56.542Z,6.20
2023-04-21T12:20:05.684Z,6.43
2023-04-21T12:23:12.187Z,6.95
2023-04-21T12:26:15.371Z,12.43
2023-04-21T12:29:18.345Z,9.00
2023-04-21T12:32:23.031Z,6.18
2023-04-21T12:35:26.537Z,6.45
2023-04-21T12:38:29.503Z,13.10
2023-04-21T12:41:32.729Z,5.43
2023-04-21T12:44:35.785Z,5.45
2023-04-21T12:47:39.433Z,5.65
2023-04-21T12:50:42.515Z,5.20
2023-04-21T12:53:46.393Z,5.78
2023-04-21T12:56:49.405Z,5.93
2023-04-21T12:59:52.369Z,5.90
2023-04-21T13:02:55.514Z,5.57
2023-04-21T13:05:58.814Z,5.45
2023-04-21T13:09:01.968Z,5.05
2023-04-21T13:12:04.947Z,5.20
2023-04-21T13:15:08.574Z,5.13
2023-04-21T13:18:11.544Z,6.00
2023-04-21T13:21:14.723Z,5.63
2023-04-21T13:24:17.661Z,5.75
2023-04-21T13:27:20.659Z,5.30
2023-04-21T13:30:23.595Z,5.55
2023-04-21T13:33:26.972Z,5.20
2023-04-21T13:36:33.624Z,5.43
2023-04-21T13:39:36.787Z,5.15
2023-04-21T13:42:39.934Z,5.80
2023-04-21T13:45:42.877Z,5.90
2023-04-21T13:48:46.337Z,5.80
2023-04-21T13:51:49.388Z,5.65
2023-04-21T13:54:53.376Z,5.35
2023-04-21T13:57:56.381Z,5.70
2023-04-21T14:00:59.346Z,5.78
2023-04-21T14:04:02.407Z,5.80
2023-04-21T14:07:05.758Z,5.85
2023-04-21T14:10:09.175Z,5.65
2023-04-21T14:13:23.033Z,5.70
2023-04-21T14:16:35.210Z,5.43
2023-04-21T14:19:38.399Z,5.53
2023-04-21T14:22:41.645Z,5.53
2023-04-21T14:25:44.631Z,5.95
2023-04-21T14:28:47.590Z,5.60
2023-04-21T14:31:51.278Z,6.30
2023-04-21T14:34:54.471Z,6.53
2023-04-21T14:38:00.851Z,6.05
2023-04-21T14:41:03.983Z,6.63
2023-04-21T14:44:06.984Z,6.87
2023-04-21T14:47:10.951Z,6.50
2023-04-21T14:50:14.211Z,7.18
2023-04-21T14:53:17.317Z,6.90
2023-04-21T14:56:20.696Z,6.18
2023-04-21T14:59:24.631Z,5.87
2023-04-21T15:02:27.880Z,5.85
2023-04-21T15:05:31.198Z,5.85
2023-04-21T15:08:34.260Z,5.55
2023-04-21T15:11:37.230Z,6.03
2023-04-21T15:14:40.744Z,6.20
2023-04-21T15:17:43.916Z,6.03
2023-04-21T15:20:47.030Z,6.45
2023-04-21T15:23:50.007Z,6.35
2023-04-21T15:26:53.260Z,6.38
2023-04-21T15:29:58.410Z,6.03
2023-04-21T15:33:01.586Z,5.50
2023-04-21T15:36:04.646Z,5.60
2023-04-21T15:39:08.508Z,5.78
2023-04-21T15:42:11.558Z,6.38
2023-04-21T15:45:17.821Z,4.90
2023-04-21T15:48:22.284Z,5.43
2023-04-21T15:51:25.296Z,6.10
2023-04-21T15:54:28.305Z,5.85
2023-04-21T15:57:31.273Z,5.43
2023-04-21T16:00:34.282Z,5.47
2023-04-21T16:03:38.030Z,5.40
2023-04-21T16:06:41.040Z,6.13
2023-04-21T16:09:44.226Z,6.82
2023-04-21T16:12:50.857Z,5.75
2023-04-21T16:15:53.864Z,5.20
2023-04-21T16:18:57.000Z,5.03
2023-04-21T16:21:59.951Z,6.85
2023-04-21T16:25:03.086Z,5.93
2023-04-21T16:28:06.693Z,6.00
2023-04-21T16:31:09.735Z,6.90
2023-04-21T16:34:13.928Z,5.93
2023-04-21T16:37:16.980Z,5.72
2023-04-21T16:40:22.221Z,5.78
2023-04-21T16:43:25.369Z,5.72
2023-04-21T16:46:31.877Z,5.50
2023-04-21T16:49:35.080Z,6.15
2023-04-21T16:52:38.093Z,7.07
2023-04-21T16:55:41.070Z,14.77
2023-04-21T16:58:44.143Z,8.73
2023-04-21T17:01:47.270Z,11.83
2023-04-21T17:04:50.378Z,8.93
2023-04-21T17:07:53.334Z,7.15
2023-04-21T17:10:56.360Z,6.70
2023-04-21T17:13:59.342Z,6.60
2023-04-21T17:17:02.306Z,5.23
2023-04-21T17:20:06.401Z,5.38
2023-04-21T17:23:09.763Z,6.47
2023-04-21T17:26:13.258Z,6.05
2023-04-21T17:29:16.469Z,5.63
2023-04-21T17:32:19.719Z,5.63
2023-04-21T17:35:22.857Z,5.38
2023-04-21T17:38:26.438Z,5.68
2023-04-21T17:41:29.418Z,5.85
2023-04-21T17:44:32.363Z,5.30
2023-04-21T17:47:35.345Z,5.67
2023-04-21T17:50:38.369Z,5.72
2023-04-21T17:53:42.031Z,6.20
2023-04-21T17:56:46.342Z,5.38
2023-04-21T17:59:49.372Z,5.10
2023-04-21T18:02:57.702Z,5.60
2023-04-21T18:06:00.931Z,5.55
2023-04-21T18:09:07.352Z,5.30
2023-04-21T18:12:10.347Z,5.60
2023-04-21T18:15:13.317Z,4.97
2023-04-21T18:18:16.287Z,5.43
2023-04-21T18:21:19.212Z,5.85
2023-04-21T18:24:22.190Z,5.50
2023-04-21T18:27:25.214Z,6.55
2023-04-21T18:30:28.130Z,5.80
2023-04-21T18:33:31.135Z,5.67
2023-04-21T18:36:34.870Z,5.78
2023-04-21T18:39:39.274Z,6.22
2023-04-21T18:42:42.260Z,6.68
2023-04-21T18:45:46.709Z,6.53
2023-04-21T18:48:49.668Z,6.60
2023-04-21T18:51:52.633Z,6.82
2023-04-21T18:54:55.605Z,6.53
2023-04-21T18:57:58.561Z,6.75
2023-04-21T19:01:01.599Z,6.25
2023-04-21T19:04:04.869Z,6.60
2023-04-21T19:07:10.105Z,7.05
2023-04-21T19:10:13.106Z,6.90
2023-04-21T19:13:17.157Z,7.10
2023-04-21T19:16:20.867Z,6.80
2023-04-21T19:19:24.176Z,7.47
2023-04-21T19:22:31.025Z,7.18
2023-04-21T19:25:34.694Z,9.45
2023-04-21T19:28:38.029Z,10.63
2023-04-21T19:31:41.931Z,9.73
2023-04-21T19:34:44.998Z,10.57
2023-04-21T19:37:48.047Z,10.30
2023-04-21T19:40:50.980Z,9.60
2023-04-21T19:43:53.928Z,8.15
2023-04-21T19:46:57.160Z,8.18
2023-04-21T19:50:00.142Z,8.17
2023-04-21T19:53:03.604Z,8.38
2023-04-21T19:56:06.805Z,8.45
2023-04-21T19:59:09.729Z,8.18
2023-04-21T20:02:12.737Z,8.55
2023-04-21T20:05:15.752Z,8.93
2023-04-21T20:08:18.815Z,10.82
2023-04-21T20:11:21.769Z,12.98
2023-04-21T20:14:24.762Z,12.55
2023-04-21T20:17:28.416Z,11.32
2023-04-21T20:20:31.414Z,12.37
2023-04-21T20:23:34.425Z,33.00
2023-04-21T20:26:37.690Z,22.60
2023-04-21T20:29:40.951Z,20.63
2023-04-21T20:32:45.016Z,18.58
2023-04-21T20:35:49.472Z,17.93
2023-04-21T20:38:52.430Z,15.95
2023-04-21T20:42:08.930Z,14.45
2023-04-21T20:45:17.287Z,13.13
2023-04-21T20:48:20.299Z,14.18
2023-04-21T20:51:23.304Z,12.07
2023-04-21T20:54:26.383Z,10.25
2023-04-21T20:57:29.464Z,11.90
2023-04-21T21:00:34.428Z,14.80
2023-04-21T21:03:37.809Z,22.50
2023-04-21T21:06:41.088Z,21.43
2023-04-21T21:09:44.045Z,20.20
2023-04-21T21:12:47.023Z,21.85
2023-04-21T21:15:49.956Z,18.60
2023-04-21T21:18:52.916Z,16.27
2023-04-21T21:21:55.881Z,14.47
2023-04-21T21:24:58.806Z,14.95
2023-04-21T21:28:01.752Z,15.80
2023-04-21T21:31:04.758Z,18.88
2023-04-21T21:34:07.730Z,16.30
2023-04-21T21:37:10.731Z,15.60
2023-04-21T21:40:13.728Z,14.23
2023-04-21T21:43:16.653Z,14.00
2023-04-21T21:46:19.732Z,13.38
2023-04-21T21:49:22.759Z,12.32
2023-04-21T21:52:26.515Z,11.23
2023-04-21T21:55:29.468Z,9.55
2023-04-21T21:58:32.536Z,10.98
2023-04-21T22:01:35.495Z,10.15
2023-04-21T22:04:38.495Z,9.95
2023-04-21T22:07:42.916Z,9.37
2023-04-21T22:10:46.132Z,12.85
2023-04-21T22:13:49.057Z,10.73
2023-04-21T22:16:52.760Z,9.07
2023-04-21T22:19:57.765Z,9.88
2023-04-21T22:23:00.740Z,10.07
2023-04-21T22:26:03.716Z,9.48
2023-04-21T22:29:07.123Z,9.50
2023-04-21T22:32:10.555Z,8.98
2023-04-21T22:35:13.512Z,9.95
2023-04-21T22:38:17.097Z,9.40
2023-04-21T22:41:20.935Z,10.32
2023-04-21T22:44:24.753Z,11.10
2023-04-21T22:47:28.071Z,10.73
2023-04-21T22:50:31.067Z,10.38
2023-04-21T22:53:34.283Z,10.10
2023-04-21T22:56:37.201Z,10.07
2023-04-21T22:59:40.441Z,9.38
2023-04-21T23:02:43.723Z,9.13
2023-04-21T23:05:46.772Z,8.60
2023-04-21T23:08:49.776Z,9.00
2023-04-21T23:11:52.737Z,7.95
2023-04-21T23:14:55.664Z,7.75
2023-04-21T23:17:58.665Z,6.97
2023-04-21T23:21:01.647Z,7.78
2023-04-21T23:24:04.683Z,8.47
2023-04-21T23:27:07.628Z,7.82
2023-04-21T23:30:11.112Z,8.30
2023-04-21T23:33:14.075Z,7.80
2023-04-21T23:36:17.055Z,7.68
2023-04-21T23:39:21.622Z,7.90
2023-04-21T23:42:24.600Z,8.15
2023-04-21T23:45:27.566Z,8.05
2023-04-21T23:48:30.910Z,8.10
2023-04-21T23:51:33.889Z,8.30
2023-04-21T23:54:36.825Z,8.93
2023-04-21T23:57:39.852Z,8.95
